Hisle, Kentucky
Current Conditions -  °F | °C
As of 1:15 PM on Thursday 27 Nov 2014 (Local Time) from KI39 Reporting Station
Overcast Overcast  
Wind Chill: 20°   Ceiling: 1700
Heat Index: 30°   Visibility: 10mi
Dew Point: 23°   Wind: 14mph
Humidity: 75%   Direction: 290°WNW
Pressure: 30.3"   Gusts: 18mph
Location:  37.4446°N, 84.0227°W
Report Text: KI39 271815Z AUTO 29012G16KT 10SM OVC017 M01/M05 A3030 RMK AO2
Loading
Personal Weather Stations






























Interactive Weather Map New forecast layout! Learn more

10-Day Weather Forecast

Advertisements
Track Severe Weather on mobile